الصفحة الرئيسية
METAR-TAF:

METAR-TAF

مطار :

Pierre Regional Airport

بيير, داكوتا الجنوبية, الولايات المتحدة

دائرة عرض: 44-22-58N, خط طول: 100-17-09W, ارتفاع: 531 متر

مراقبة الطقس الحالي

تاريخ ووقت الإصدار 41 دقيقة قبل الساعة 01:53UTC
ريح 9 عقدة من الغرب
درجة الحرارة 0°درجة مئوية
الرطوبة 93%
ضغط 1011 hPa
الرؤية: 16.1 كم
سماء صافية

METAR: KPIR 120153Z AUTO 27009KT 10SM CLR 00/M01 A2985 RMK AO2 SLP129 T00001011

زمن: 20:34 (02:34 UTC)

توقعات

تاريخ ووقت الإصدار 3ساعات و 5 دقيقة قبل الساعة 23:29UTC
التوقعات صالحة من12 الساعة 00 UTC إلى 12 الساعة 24 UTC
ريح 8 عقدة من الغرب
الرؤية: 10 كم
غيوم مفككة على ارتفاع 8000 قدم
من 12 الساعة 0200 UTC
ريح 5 عقدةمن اتجاهات متغيرة
الرؤية: 10 كم
سماء صافية
من 12 الساعة 1500 UTC
ريح 5 عقدةمن اتجاهات متغيرة
الرؤية: 10 كم
غيوم مفككة على ارتفاع 20000 قدم
من 12 الساعة 2200 UTC
ريح 8 عقدة من الشمال/الشمال الغربي
الرؤية: 10 كم
ملبد بالغيوم على ارتفاع 5000 قدم

TAF: KPIR 112329Z 1200/1224 27008KT P6SM BKN080 FM120200 VRB05KT P6SM SKC FM121500 VRB05KT P6SM BKN200 FM122200 33008KT P6SM OVC050

أرصاد الطقس والتوقعات من أكثر من 4000 مطار (تقارير الطقس للمطار METAR والتنبؤ بالطقس بالمطارTAF).

المحطات المتاحة هي النقط الصفراء والحمراء على الخريطة.

حرك المؤشر فوق النقطة لمعرفة اسم المحطة.

ثم انقر لمعرفة أرصاد وتوقعات الطقس.

لتغيير الخارطة: اضغط على الأزرار الخضراء مع رمز الصليب الأسود للتكبير. على الزر الأخضر مع شرطة للتصغير، أو على الأسهم الخضراء للخرائط المجاورة.


METAR-TAF: